Time;durP1;ratioP1;P1;durP2;ratioP2;P2;SDS_P1;SDS_P2;PMS_P1;PMS_P2;Temp;Humidity;BMP_temperature;BMP_pressure;BME280_temperature;BME280_humidity;BME280_pressure;Samples;Min_cycle;Max_cycle;Signal;HPM_P1;HPM_P2
2022/01/06 00:00:12;;;;;;;33.58;21.40;;;4.80;99.90;;;;;;4904991;29;20040;-95
2022/01/06 00:02:39;;;;;;;32.47;20.08;;;4.80;99.90;;;;;;4904758;29;20116;-96
2022/01/06 00:05:05;;;;;;;30.08;19.45;;;4.80;99.90;;;;;;4904808;29;20123;-96
2022/01/06 00:07:32;;;;;;;31.63;19.30;;;4.80;99.90;;;;;;4904587;29;20474;-96
2022/01/06 00:09:58;;;;;;;52.35;28.42;;;4.80;99.90;;;;;;4904497;29;20036;-95
2022/01/06 00:12:32;;;;;;;70.55;35.97;;;4.80;99.90;;;;;;4904725;29;20035;-94
2022/01/06 00:23:25;;;;;;;35.35;21.60;;;4.70;99.90;;;;;;4921552;29;19954;-94
2022/01/06 00:25:51;;;;;;;38.90;23.38;;;4.60;99.90;;;;;;4904231;29;20075;-94
2022/01/06 00:28:18;;;;;;;35.55;22.13;;;4.60;99.90;;;;;;4904522;29;20028;-93
2022/01/06 00:30:44;;;;;;;37.47;20.20;;;4.60;99.90;;;;;;4904270;29;20080;-95
2022/01/06 00:33:10;;;;;;;33.33;19.73;;;4.60;99.90;;;;;;4905437;29;20035;-95
2022/01/06 00:35:36;;;;;;;31.42;20.88;;;4.60;99.90;;;;;;4904026;29;20028;-93
2022/01/06 00:38:05;;;;;;;35.33;21.30;;;4.60;99.90;;;;;;4904120;29;20497;-94
2022/01/06 00:40:31;;;;;;;30.63;19.77;;;4.60;99.90;;;;;;4904169;29;20032;-96
2022/01/06 00:42:57;;;;;;;31.85;19.40;;;4.60;99.90;;;;;;4904091;29;20084;-95
2022/01/06 00:45:22;;;;;;;35.22;20.88;;;4.60;99.90;;;;;;4903422;29;20028;-94
2022/01/06 00:47:48;;;;;;;34.53;19.85;;;4.60;99.90;;;;;;4903967;29;20034;-95
2022/01/06 00:50:14;;;;;;;33.10;19.55;;;4.60;99.90;;;;;;4903332;29;20443;-95
2022/01/06 00:52:40;;;;;;;32.78;20.55;;;4.60;99.90;;;;;;4935097;29;20562;-94
2022/01/06 00:55:07;;;;;;;31.25;19.40;;;4.60;99.90;;;;;;4903895;29;20395;-94
2022/01/06 00:57:33;;;;;;;30.88;19.42;;;4.60;99.90;;;;;;4904430;29;20058;-94
2022/01/06 00:59:59;;;;;;;31.70;19.65;;;4.60;99.90;;;;;;4903318;29;20441;-95
2022/01/06 01:02:24;;;;;;;30.48;18.67;;;4.60;99.90;;;;;;4887802;29;20079;-95
2022/01/06 01:04:50;;;;;;;29.90;18.00;;;4.60;99.90;;;;;;4904167;29;20107;-95
2022/01/06 01:07:17;;;;;;;29.58;18.65;;;4.60;99.90;;;;;;4921040;29;20055;-96
2022/01/06 01:09:43;;;;;;;30.88;19.65;;;4.60;99.90;;;;;;4903333;29;20035;-95
2022/01/06 01:12:10;;;;;;;32.78;18.75;;;4.60;99.90;;;;;;4920056;29;20095;-94
2022/01/06 01:14:52;;;;;;;28.20;17.50;;;4.60;99.90;;;;;;4888436;29;20466;-93
2022/01/06 01:17:18;;;;;;;31.00;18.48;;;4.60;99.90;;;;;;4903300;29;20558;-95
2022/01/06 01:19:44;;;;;;;26.30;16.35;;;4.60;99.90;;;;;;4903404;29;20115;-96
2022/01/06 01:22:09;;;;;;;30.58;18.60;;;4.60;99.90;;;;;;4902928;29;20024;-94
2022/01/06 01:24:35;;;;;;;28.42;17.88;;;4.60;99.90;;;;;;4903123;29;20028;-96
2022/01/06 01:27:01;;;;;;;32.17;19.08;;;4.60;99.90;;;;;;4902958;29;20028;-95
2022/01/06 01:29:30;;;;;;;31.58;18.23;;;4.60;99.90;;;;;;4902991;29;20132;-94
2022/01/06 01:31:57;;;;;;;30.85;18.13;;;4.50;99.90;;;;;;4903109;29;20490;-94
2022/01/06 01:34:26;;;;;;;30.35;18.05;;;4.60;99.90;;;;;;4887725;29;20055;-94
2022/01/06 01:36:57;;;;;;;29.45;17.42;;;4.60;99.90;;;;;;4903163;29;20036;-95
2022/01/06 01:39:24;;;;;;;27.77;17.48;;;4.50;99.90;;;;;;4903994;29;20114;-95
2022/01/06 01:41:51;;;;;;;28.55;17.08;;;4.50;99.90;;;;;;4903037;29;20056;-95
2022/01/06 01:44:20;;;;;;;29.13;16.88;;;4.50;99.90;;;;;;4902642;29;20032;-95
2022/01/06 01:46:59;;;;;;;26.65;16.40;;;4.50;99.90;;;;;;4903529;29;20040;-94
2022/01/06 01:51:52;;;;;;;34.38;17.45;;;4.50;99.90;;;;;;4919393;29;20024;-95
2022/01/06 01:54:18;;;;;;;32.85;17.55;;;4.50;99.90;;;;;;4903440;29;20371;-94
2022/01/06 01:56:44;;;;;;;32.08;18.20;;;4.50;99.90;;;;;;4934180;29;20042;-95
2022/01/06 01:59:11;;;;;;;35.00;19.33;;;4.40;99.90;;;;;;4886847;29;20028;-95
2022/01/06 02:01:37;;;;;;;30.13;18.67;;;4.50;99.90;;;;;;4902270;29;20036;-95
2022/01/06 02:04:03;;;;;;;34.13;19.00;;;4.40;99.90;;;;;;4886685;29;20028;-94
2022/01/06 02:06:29;;;;;;;33.25;19.77;;;4.40;99.90;;;;;;4902765;29;20020;-94
2022/01/06 02:08:55;;;;;;;50.60;29.58;;;4.40;99.90;;;;;;4902510;29;20083;-95
2022/01/06 02:11:22;;;;;;;56.40;31.83;;;4.30;99.90;;;;;;4918985;29;20032;-95
2022/01/06 02:13:49;;;;;;;65.85;40.20;;;4.30;99.90;;;;;;4902562;29;20032;-94
2022/01/06 02:16:24;;;;;;;76.78;47.42;;;4.30;99.90;;;;;;4902064;29;20031;-95
2022/01/06 02:18:51;;;;;;;78.20;48.08;;;4.30;99.90;;;;;;4902203;29;20501;-95
2022/01/06 02:21:18;;;;;;;83.63;48.67;;;4.20;99.90;;;;;;4902601;29;20032;-94
2022/01/06 02:23:44;;;;;;;68.45;42.85;;;4.20;99.90;;;;;;4902068;29;20035;-94
2022/01/06 02:26:10;;;;;;;71.57;40.53;;;4.10;99.90;;;;;;4902045;29;20024;-95
2022/01/06 02:28:36;;;;;;;50.00;30.13;;;4.10;99.90;;;;;;4902457;29;20052;-94
2022/01/06 02:31:03;;;;;;;43.65;25.30;;;4.00;99.90;;;;;;4902306;29;20060;-93
2022/01/06 02:33:29;;;;;;;39.85;24.70;;;4.00;99.90;;;;;;4902619;29;20111;-94
2022/01/06 02:35:55;;;;;;;43.95;24.25;;;4.00;99.90;;;;;;4933263;29;20515;-94
2022/01/06 02:38:22;;;;;;;37.65;22.42;;;4.00;99.90;;;;;;4901824;29;20032;-94
2022/01/06 02:40:48;;;;;;;34.00;20.48;;;3.90;99.90;;;;;;4902420;29;20088;-94
2022/01/06 02:43:17;;;;;;;34.35;20.05;;;3.90;99.90;;;;;;4902227;29;20028;-94
2022/01/06 02:45:44;;;;;;;32.00;19.42;;;3.90;99.90;;;;;;4902623;29;20082;-94
2022/01/06 02:48:10;;;;;;;32.20;19.77;;;3.90;99.90;;;;;;4901363;29;20032;-94
2022/01/06 02:50:41;;;;;;;33.75;18.65;;;3.90;99.90;;;;;;4901657;29;20531;-95
2022/01/06 02:53:08;;;;;;;33.03;18.63;;;3.90;99.90;;;;;;4901690;29;20107;-94
2022/01/06 02:55:35;;;;;;;29.75;17.52;;;3.80;99.90;;;;;;4901906;29;20139;-94
2022/01/06 02:58:01;;;;;;;32.10;19.35;;;3.90;99.90;;;;;;4901534;29;20471;-94
2022/01/06 03:00:27;;;;;;;31.05;18.90;;;3.90;99.90;;;;;;4901541;29;20052;-94
2022/01/06 03:02:53;;;;;;;36.28;19.05;;;3.80;99.90;;;;;;4901965;29;20024;-95
2022/01/06 03:05:19;;;;;;;30.25;16.90;;;3.80;99.90;;;;;;4885851;29;20025;-94
2022/01/06 03:07:46;;;;;;;33.70;19.25;;;3.80;99.90;;;;;;4918107;29;20039;-95
2022/01/06 03:10:15;;;;;;;30.85;18.50;;;3.80;99.90;;;;;;4902151;29;20092;-95
2022/01/06 03:12:41;;;;;;;30.35;18.17;;;3.80;99.90;;;;;;4901418;29;20032;-95
2022/01/06 03:15:18;;;;;;;32.10;17.90;;;3.70;99.90;;;;;;4886415;29;20123;-94
2022/01/06 03:17:47;;;;;;;30.85;19.92;;;3.70;99.90;;;;;;4902236;29;20371;-96
2022/01/06 03:20:15;;;;;;;29.50;19.10;;;3.70;99.90;;;;;;4901848;29;20024;-95
2022/01/06 03:22:42;;;;;;;34.13;20.45;;;3.70;99.90;;;;;;4918338;29;20100;-95
2022/01/06 03:25:09;;;;;;;32.17;20.23;;;3.70;99.90;;;;;;4901300;29;20084;-94
2022/01/06 03:27:36;;;;;;;30.55;19.25;;;3.70;99.90;;;;;;4900875;29;20033;-95
2022/01/06 03:30:07;;;;;;;37.42;20.80;;;3.60;99.90;;;;;;4901409;29;20060;-94
2022/01/06 03:32:33;;;;;;;29.40;17.55;;;3.60;99.90;;;;;;4900592;29;20557;-94
2022/01/06 03:34:59;;;;;;;31.98;19.17;;;3.60;99.90;;;;;;4901066;29;20546;-94
2022/01/06 03:37:26;;;;;;;33.63;18.80;;;3.50;99.90;;;;;;4901377;29;20032;-93
2022/01/06 03:39:51;;;;;;;41.13;22.75;;;3.50;99.90;;;;;;4901228;29;20055;-94
2022/01/06 03:42:19;;;;;;;42.75;23.40;;;3.50;99.90;;;;;;4900798;29;20031;-94
2022/01/06 03:44:44;;;;;;;37.60;21.13;;;3.50;99.90;;;;;;4932922;29;20024;-95
2022/01/06 03:47:11;;;;;;;36.40;21.17;;;3.50;99.90;;;;;;4901325;29;20032;-94
2022/01/06 03:49:37;;;;;;;36.65;20.48;;;3.50;99.90;;;;;;4885618;29;20032;-95
2022/01/06 03:52:03;;;;;;;35.28;20.58;;;3.50;99.90;;;;;;4901085;29;20024;-94
2022/01/06 03:54:29;;;;;;;37.35;21.50;;;3.50;99.90;;;;;;4901244;29;20028;-93
2022/01/06 03:56:54;;;;;;;39.40;22.42;;;3.50;99.90;;;;;;4900605;29;20079;-94
2022/01/06 03:59:23;;;;;;;40.50;21.90;;;3.50;99.90;;;;;;4900955;29;20035;-95
2022/01/06 04:01:48;;;;;;;47.63;22.92;;;3.50;99.90;;;;;;4900826;29;20031;-93
2022/01/06 04:04:14;;;;;;;40.13;23.15;;;3.50;99.90;;;;;;4900918;29;20459;-93
2022/01/06 04:06:41;;;;;;;36.78;21.35;;;3.50;99.90;;;;;;4901055;29;20024;-94
2022/01/06 04:09:07;;;;;;;34.05;19.63;;;3.50;99.90;;;;;;4901111;29;20060;-94
2022/01/06 04:11:33;;;;;;;37.35;21.83;;;3.50;99.90;;;;;;4900963;29;20052;-94
2022/01/06 04:13:59;;;;;;;36.85;21.23;;;3.50;99.90;;;;;;4901767;29;20116;-93
2022/01/06 04:16:26;;;;;;;40.50;23.10;;;3.50;99.90;;;;;;4900480;29;20030;-93
2022/01/06 04:18:52;;;;;;;42.28;23.77;;;3.50;99.90;;;;;;4900975;29;20036;-95
2022/01/06 04:21:18;;;;;;;44.65;23.85;;;3.60;99.90;;;;;;4900899;29;20105;-94
2022/01/06 04:23:43;;;;;;;38.95;23.13;;;3.60;99.90;;;;;;4900674;29;20079;-95
2022/01/06 04:26:09;;;;;;;38.53;23.80;;;3.60;99.90;;;;;;4903303;29;20431;-95
2022/01/06 04:28:36;;;;;;;38.88;23.02;;;3.60;99.90;;;;;;4904265;29;20036;-94
2022/01/06 04:31:02;;;;;;;47.03;25.33;;;3.70;99.90;;;;;;4904559;29;20055;-95
2022/01/06 04:33:27;;;;;;;43.97;25.10;;;3.70;99.90;;;;;;4904128;29;20395;-93
2022/01/06 04:35:53;;;;;;;42.67;24.10;;;3.80;99.90;;;;;;4904348;29;20535;-96
2022/01/06 04:38:21;;;;;;;43.67;24.30;;;3.80;99.90;;;;;;4888222;29;20032;-94
2022/01/06 04:40:47;;;;;;;37.63;22.63;;;4.00;99.90;;;;;;4904796;29;20028;-93
2022/01/06 04:43:13;;;;;;;38.00;22.02;;;4.10;99.90;;;;;;4904723;29;20167;-96
2022/01/06 04:45:39;;;;;;;49.65;25.48;;;4.20;99.90;;;;;;4904738;29;20122;-93
2022/01/06 04:48:06;;;;;;;44.25;24.52;;;4.40;99.90;;;;;;4904074;29;20032;-94
2022/01/06 04:50:32;;;;;;;38.15;22.52;;;4.50;99.90;;;;;;4904843;29;20416;-94
2022/01/06 04:52:58;;;;;;;43.33;24.25;;;4.60;99.90;;;;;;4904031;29;20115;-96
2022/01/06 04:55:23;;;;;;;41.55;22.05;;;4.70;99.90;;;;;;4888915;29;20032;-92
2022/01/06 04:57:50;;;;;;;34.80;20.75;;;4.80;99.90;;;;;;4904050;29;20494;-95
2022/01/06 05:00:16;;;;;;;36.33;21.00;;;4.80;99.90;;;;;;4904031;29;20032;-95
2022/01/06 05:02:42;;;;;;;36.72;21.23;;;4.90;99.90;;;;;;4903456;29;20490;-94
2022/01/06 05:05:07;;;;;;;31.08;19.13;;;4.90;99.90;;;;;;4903143;29;20115;-94
2022/01/06 05:07:33;;;;;;;35.22;20.38;;;4.90;99.90;;;;;;4903472;29;20119;-94
2022/01/06 05:09:59;;;;;;;39.08;21.08;;;4.90;99.90;;;;;;4904522;29;20043;-94
2022/01/06 05:12:25;;;;;;;37.75;20.40;;;4.90;99.90;;;;;;4903454;29;20070;-93
2022/01/06 05:14:50;;;;;;;36.92;19.75;;;5.00;99.90;;;;;;4903468;29;20032;-93
2022/01/06 05:17:19;;;;;;;37.17;20.25;;;5.00;99.90;;;;;;4903625;29;20120;-93
2022/01/06 05:19:44;;;;;;;35.65;19.95;;;5.00;99.90;;;;;;4903473;29;20028;-94
2022/01/06 05:22:10;;;;;;;36.83;20.77;;;5.00;99.90;;;;;;4903003;29;20475;-93
2022/01/06 05:24:37;;;;;;;37.13;20.85;;;5.00;99.90;;;;;;4887926;29;20032;-93
2022/01/06 05:27:04;;;;;;;38.63;20.58;;;5.00;99.90;;;;;;4903973;29;20370;-93
2022/01/06 14:04:38;;;;;;;14.60;8.35;;;4.10;99.90;;;;;;5092098;27;20382;-94
2022/01/06 14:07:04;;;;;;;41.40;23.00;;;4.10;99.90;;;;;;5070509;28;20033;-93
2022/01/06 14:09:30;;;;;;;14.43;8.02;;;4.10;99.90;;;;;;5071418;28;20021;-94
2022/01/06 14:11:57;;;;;;;10.50;6.65;;;4.10;99.90;;;;;;5070669;28;20017;-95
2022/01/06 14:14:24;;;;;;;10.00;6.95;;;4.10;99.90;;;;;;5070647;28;20051;-96
2022/01/06 14:16:50;;;;;;;16.25;9.18;;;4.10;99.90;;;;;;5070286;28;20026;-96
2022/01/06 14:19:16;;;;;;;14.98;8.75;;;4.10;99.90;;;;;;5071529;28;20037;-94
2022/01/06 14:21:42;;;;;;;13.73;9.02;;;4.20;99.90;;;;;;5070312;28;20021;-96
2022/01/06 14:24:07;;;;;;;19.45;8.82;;;4.20;99.90;;;;;;5070216;28;20025;-92
2022/01/06 14:26:33;;;;;;;22.98;9.65;;;4.20;99.90;;;;;;5070051;28;20114;-93
2022/01/06 14:28:59;;;;;;;17.77;10.23;;;4.30;99.90;;;;;;5071168;28;20066;-96
2022/01/06 14:31:26;;;;;;;16.15;10.07;;;4.30;99.90;;;;;;5072096;28;20520;-94
2022/01/06 14:33:52;;;;;;;17.27;10.75;;;4.40;99.90;;;;;;5062231;28;20052;-94
2022/01/06 14:36:20;;;;;;;16.27;11.40;;;4.40;99.90;;;;;;5054454;28;20052;-95
2022/01/06 14:38:47;;;;;;;20.05;11.32;;;4.30;99.90;;;;;;5050091;28;20029;-93
2022/01/06 14:41:16;;;;;;;16.65;9.77;;;4.40;99.90;;;;;;5050484;28;20036;-94
2022/01/06 14:43:42;;;;;;;17.45;9.35;;;4.40;99.90;;;;;;5049783;28;20059;-94
2022/01/06 14:46:09;;;;;;;17.23;9.68;;;4.40;99.90;;;;;;5049930;28;20476;-94
2022/01/06 14:48:35;;;;;;;19.17;9.85;;;4.40;99.90;;;;;;5050009;28;20052;-95
2022/01/06 14:51:01;;;;;;;17.45;8.30;;;4.40;99.90;;;;;;5049755;28;20056;-92
2022/01/06 14:53:27;;;;;;;12.60;8.45;;;4.40;99.90;;;;;;5049757;28;20033;-93
2022/01/06 14:55:52;;;;;;;15.02;8.80;;;4.40;99.90;;;;;;5049907;28;20033;-93
2022/01/06 14:58:18;;;;;;;18.35;9.13;;;4.40;99.90;;;;;;5051260;28;20420;-93
2022/01/06 15:00:44;;;;;;;15.88;9.13;;;4.40;99.90;;;;;;5049629;28;20026;-93
2022/01/06 15:03:10;;;;;;;19.50;10.45;;;4.40;99.90;;;;;;5054199;28;20131;-92
2022/01/06 15:05:36;;;;;;;18.27;9.75;;;4.30;99.90;;;;;;5069435;28;20063;-94
2022/01/06 15:08:02;;;;;;;18.25;10.30;;;4.30;99.90;;;;;;5062549;28;20108;-91
2022/01/06 15:10:28;;;;;;;19.63;10.90;;;4.30;99.90;;;;;;5050350;28;20051;-92
2022/01/06 15:12:54;;;;;;;19.45;11.70;;;4.30;99.90;;;;;;5049287;28;20116;-91
2022/01/06 15:15:21;;;;;;;16.00;10.10;;;4.30;99.90;;;;;;5056362;28;20499;-91
2022/01/06 15:17:47;;;;;;;18.83;10.02;;;4.30;99.90;;;;;;5055980;28;20099;-92
2022/01/06 15:20:14;;;;;;;13.95;9.25;;;4.20;99.90;;;;;;5056268;28;20479;-95
2022/01/06 15:22:40;;;;;;;14.57;9.05;;;4.20;99.90;;;;;;5055779;28;20080;-91
2022/01/06 15:25:06;;;;;;;15.77;9.85;;;4.20;99.90;;;;;;5055944;28;20495;-92
2022/01/06 15:27:32;;;;;;;16.02;8.60;;;4.20;99.90;;;;;;5050829;28;20464;-91
2022/01/06 15:29:58;;;;;;;18.52;12.25;;;4.20;99.90;;;;;;5052657;28;20033;-92
2022/01/06 15:32:24;;;;;;;19.23;11.52;;;4.20;99.90;;;;;;5055415;28;20033;-91
2022/01/06 15:34:51;;;;;;;22.10;13.65;;;4.20;99.90;;;;;;5055194;28;20028;-93
2022/01/06 15:37:17;;;;;;;20.83;12.07;;;4.20;99.90;;;;;;5055534;28;20028;-92
2022/01/06 15:39:43;;;;;;;17.20;9.45;;;4.10;99.90;;;;;;5055563;28;20028;-92
2022/01/06 15:42:09;;;;;;;15.35;10.10;;;4.10;99.90;;;;;;5055915;28;20021;-92
2022/01/06 15:44:35;;;;;;;18.13;9.00;;;4.10;99.90;;;;;;5055403;28;20028;-91
2022/01/06 15:47:01;;;;;;;15.07;9.45;;;4.10;99.90;;;;;;5055098;28;20383;-92
2022/01/06 15:49:26;;;;;;;17.42;10.25;;;4.10;99.90;;;;;;5044012;28;20036;-90
2022/01/06 15:51:53;;;;;;;27.40;18.02;;;4.10;99.90;;;;;;5043206;28;20028;-94
2022/01/06 15:54:19;;;;;;;33.03;21.38;;;4.10;99.90;;;;;;5055258;28;20025;-94
2022/01/06 15:56:48;;;;;;;23.10;14.80;;;4.10;99.90;;;;;;5055322;28;20025;-94
2022/01/06 15:59:18;;;;;;;25.23;13.48;;;4.00;99.90;;;;;;5056291;28;20028;-92
2022/01/06 16:07:11;;;;;;;20.55;12.32;;;4.00;99.90;;;;;;5056807;28;19912;-93
2022/01/06 16:09:40;;;;;;;22.88;13.77;;;4.00;99.90;;;;;;5038817;28;20476;-93
2022/01/06 16:12:07;;;;;;;20.85;13.27;;;4.00;99.90;;;;;;5038377;28;20414;-93
2022/01/06 16:14:32;;;;;;;22.48;14.13;;;4.00;99.90;;;;;;5038031;28;20029;-92
2022/01/06 16:16:58;;;;;;;31.73;18.13;;;4.00;99.90;;;;;;5038389;28;20032;-93
2022/01/06 16:19:24;;;;;;;35.65;18.55;;;4.00;99.90;;;;;;5038392;28;20029;-92
2022/01/06 16:21:50;;;;;;;31.55;16.88;;;4.00;99.90;;;;;;5038221;28;20025;-93
2022/01/06 16:24:16;;;;;;;27.00;16.77;;;4.00;99.90;;;;;;5038002;28;20029;-93
2022/01/06 16:26:41;;;;;;;24.63;14.75;;;4.00;99.90;;;;;;5037423;28;20045;-92
2022/01/06 16:29:07;;;;;;;19.80;12.30;;;4.00;99.90;;;;;;5038248;28;20393;-93
2022/01/06 16:31:47;;;;;;;20.20;12.30;;;4.00;99.90;;;;;;5037988;28;20090;-94
2022/01/06 16:34:14;;;;;;;17.08;11.70;;;4.00;99.90;;;;;;5037894;28;20025;-93
2022/01/06 16:36:40;;;;;;;17.90;13.02;;;4.00;99.90;;;;;;5037973;28;20029;-94
2022/01/06 16:39:08;;;;;;;18.52;11.88;;;4.00;99.90;;;;;;5037845;28;20060;-93
2022/01/06 16:41:34;;;;;;;19.20;11.80;;;3.90;99.90;;;;;;5037875;28;20075;-93
2022/01/06 16:44:02;;;;;;;19.63;11.63;;;4.00;99.90;;;;;;5037547;28;20391;-94
2022/01/06 16:46:31;;;;;;;19.15;11.43;;;3.90;99.90;;;;;;5037765;28;20151;-93
2022/01/06 16:48:57;;;;;;;20.52;12.65;;;4.00;99.90;;;;;;5037997;28;20032;-94
2022/01/06 16:51:24;;;;;;;21.77;12.98;;;4.00;99.90;;;;;;5037862;28;20068;-93
2022/01/06 16:53:50;;;;;;;21.95;13.10;;;4.00;99.90;;;;;;5037492;28;20078;-94
2022/01/06 16:56:16;;;;;;;27.77;14.15;;;3.90;99.90;;;;;;5037651;28;20031;-94
2022/01/06 16:58:42;;;;;;;26.77;15.48;;;3.90;99.90;;;;;;5037636;28;20028;-94
2022/01/06 17:01:08;;;;;;;38.47;19.60;;;3.90;99.90;;;;;;5037727;28;20426;-92
2022/01/06 17:03:34;;;;;;;36.40;18.42;;;4.00;99.90;;;;;;5045579;28;20053;-94
2022/01/06 17:06:00;;;;;;;38.67;19.33;;;3.90;99.90;;;;;;5054547;28;20075;-93
2022/01/06 17:08:25;;;;;;;36.70;19.02;;;3.90;99.90;;;;;;5053805;28;20107;-94
2022/01/06 17:10:51;;;;;;;35.88;18.85;;;3.90;99.90;;;;;;5054682;28;20063;-93
2022/01/06 17:13:19;;;;;;;40.35;19.35;;;3.90;99.90;;;;;;5054266;28;20082;-93
2022/01/06 17:15:45;;;;;;;25.45;13.70;;;3.90;99.90;;;;;;5053748;28;20499;-93
2022/01/06 17:18:11;;;;;;;25.60;13.50;;;3.90;99.90;;;;;;5053824;28;20479;-93
2022/01/06 17:20:36;;;;;;;20.20;11.65;;;3.90;99.90;;;;;;5037503;28;20033;-92
2022/01/06 17:23:02;;;;;;;22.38;12.32;;;3.90;99.90;;;;;;5053566;28;20033;-93
2022/01/06 17:25:28;;;;;;;20.05;11.82;;;3.80;99.90;;;;;;5053718;28;20158;-91
2022/01/06 17:27:54;;;;;;;16.30;9.95;;;3.80;99.90;;;;;;5053571;28;20091;-92
2022/01/06 17:30:20;;;;;;;14.00;8.60;;;3.80;99.90;;;;;;5053592;28;20025;-93
2022/01/06 17:32:46;;;;;;;15.30;8.73;;;3.80;99.90;;;;;;5053490;28;20112;-92
2022/01/06 17:35:12;;;;;;;16.63;9.35;;;3.80;99.90;;;;;;5053646;28;20060;-93
2022/01/06 17:37:38;;;;;;;17.88;10.13;;;3.80;99.90;;;;;;5053414;28;20021;-93
2022/01/06 17:40:05;;;;;;;13.60;8.48;;;3.80;99.90;;;;;;5053715;28;20422;-94
2022/01/06 17:42:31;;;;;;;16.15;8.27;;;3.80;99.90;;;;;;5053178;28;20029;-94
2022/01/06 17:44:57;;;;;;;13.20;8.52;;;3.70;99.90;;;;;;5053364;28;20025;-92
2022/01/06 17:47:22;;;;;;;14.30;9.00;;;3.70;99.90;;;;;;5053211;28;20025;-93
2022/01/06 17:49:48;;;;;;;17.38;9.02;;;3.80;99.90;;;;;;5053259;28;20029;-93
2022/01/06 17:52:15;;;;;;;18.83;11.13;;;3.70;99.90;;;;;;5053260;28;20111;-92
2022/01/06 17:54:40;;;;;;;21.75;11.30;;;3.70;99.90;;;;;;5053231;28;20021;-92
2022/01/06 17:57:07;;;;;;;23.55;12.45;;;3.70;99.90;;;;;;5053337;28;20163;-93
2022/01/06 17:59:33;;;;;;;22.50;12.88;;;3.70;99.90;;;;;;5053473;28;20044;-93
2022/01/06 18:02:00;;;;;;;22.63;13.13;;;3.70;99.90;;;;;;5053081;28;20522;-90
2022/01/06 18:04:26;;;;;;;20.58;12.27;;;3.70;99.90;;;;;;5052739;28;20046;-93
2022/01/06 18:06:54;;;;;;;25.95;12.60;;;3.70;99.90;;;;;;5053163;28;20079;-93
2022/01/06 18:12:06;;;;;;;21.08;10.77;;;3.70;99.90;;;;;;5054206;28;20025;-92
2022/01/06 18:14:32;;;;;;;19.25;10.30;;;3.70;99.90;;;;;;5053156;28;20104;-91
2022/01/06 18:16:58;;;;;;;22.13;11.98;;;3.70;99.90;;;;;;5052936;28;20029;-92
2022/01/06 18:19:24;;;;;;;26.33;12.52;;;3.70;99.90;;;;;;5053278;28;20078;-92
2022/01/06 18:21:51;;;;;;;27.38;14.30;;;3.70;99.90;;;;;;5053346;28;20463;-92
2022/01/06 18:24:17;;;;;;;34.70;16.35;;;3.70;99.90;;;;;;5052881;28;20098;-94
2022/01/06 18:26:43;;;;;;;34.58;17.27;;;3.60;99.90;;;;;;5053969;28;20021;-93
2022/01/06 18:29:09;;;;;;;29.95;16.25;;;3.60;99.90;;;;;;5052977;28;20423;-93
2022/01/06 18:31:40;;;;;;;23.40;13.75;;;3.60;99.90;;;;;;5052818;28;20048;-93
2022/01/06 18:34:06;;;;;;;20.55;11.40;;;3.60;99.90;;;;;;5053019;28;20429;-92
2022/01/06 18:36:32;;;;;;;17.85;10.75;;;3.70;99.90;;;;;;5053343;28;20021;-93
2022/01/06 18:38:59;;;;;;;20.38;11.77;;;3.70;99.90;;;;;;5053100;28;20057;-92
2022/01/06 18:41:26;;;;;;;21.23;10.88;;;3.70;99.90;;;;;;5052842;28;20120;-93
2022/01/06 18:43:52;;;;;;;23.30;11.25;;;3.60;99.90;;;;;;5052975;28;20388;-92
2022/01/06 18:46:18;;;;;;;31.02;13.57;;;3.60;99.90;;;;;;5052993;28;20029;-92
2022/01/06 18:48:44;;;;;;;30.75;12.52;;;3.70;99.90;;;;;;5054092;28;20032;-93
2022/01/06 18:51:10;;;;;;;32.08;13.77;;;3.60;99.90;;;;;;5055889;28;20108;-94
2022/01/06 18:53:37;;;;;;;25.73;11.90;;;3.60;99.90;;;;;;5057070;28;20108;-93
2022/01/06 18:56:05;;;;;;;23.17;9.82;;;3.60;99.90;;;;;;5056365;28;20025;-93
2022/01/06 18:58:31;;;;;;;20.98;9.75;;;3.60;99.90;;;;;;5056476;28;20387;-92
2022/01/06 19:00:58;;;;;;;17.80;9.68;;;3.60;99.90;;;;;;5056289;28;20037;-93
2022/01/06 19:03:23;;;;;;;22.08;10.35;;;3.60;99.90;;;;;;5057333;28;20132;-93
2022/01/06 19:05:50;;;;;;;16.60;8.85;;;3.60;99.90;;;;;;5040894;28;20112;-94
2022/01/06 19:08:16;;;;;;;16.33;8.80;;;3.60;99.90;;;;;;5040736;28;20025;-92
2022/01/06 19:10:42;;;;;;;16.38;9.48;;;3.60;99.90;;;;;;5039342;28;20032;-92
2022/01/06 19:13:09;;;;;;;17.88;8.93;;;3.60;99.90;;;;;;5040324;28;20061;-92
2022/01/06 19:15:35;;;;;;;18.63;9.43;;;3.60;99.90;;;;;;5039360;28;20036;-91
2022/01/06 19:18:04;;;;;;;20.88;9.15;;;3.60;99.90;;;;;;5057295;28;20099;-93
2022/01/06 19:20:31;;;;;;;18.10;9.38;;;3.60;99.90;;;;;;5039291;28;20029;-93
2022/01/06 19:22:57;;;;;;;21.95;10.13;;;3.60;99.90;;;;;;5039367;28;20061;-92
2022/01/06 19:25:23;;;;;;;21.33;10.05;;;3.60;99.90;;;;;;5039315;28;20090;-92
2022/01/06 19:27:48;;;;;;;23.63;10.70;;;3.60;99.90;;;;;;5039472;28;20071;-92
2022/01/06 19:30:16;;;;;;;21.52;11.55;;;3.60;99.90;;;;;;5039968;28;20025;-93
2022/01/06 19:32:44;;;;;;;20.10;9.93;;;3.60;99.90;;;;;;5039115;28;20539;-92
2022/01/06 19:35:15;;;;;;;22.88;10.48;;;3.60;99.90;;;;;;5039081;28;20471;-92
2022/01/06 19:37:41;;;;;;;17.83;9.98;;;3.70;99.90;;;;;;5039006;28;20471;-93
2022/01/06 19:40:10;;;;;;;20.25;10.27;;;3.70;99.90;;;;;;5038911;28;20025;-94
2022/01/06 19:42:37;;;;;;;22.02;10.95;;;3.60;99.90;;;;;;5038840;28;20438;-93
2022/01/06 19:45:05;;;;;;;23.35;10.63;;;3.60;99.90;;;;;;5038895;28;20025;-92
2022/01/06 19:47:33;;;;;;;19.27;10.18;;;3.60;99.90;;;;;;5039487;28;20532;-93
2022/01/06 19:49:58;;;;;;;23.40;10.50;;;3.70;99.90;;;;;;5038977;28;20028;-90
2022/01/06 19:52:24;;;;;;;19.15;10.55;;;3.60;99.90;;;;;;5038862;28;20024;-94
2022/01/06 19:54:50;;;;;;;20.13;9.48;;;3.60;99.90;;;;;;5038762;28;20052;-93
2022/01/06 19:57:15;;;;;;;17.35;9.00;;;3.60;99.90;;;;;;5038822;28;20423;-92
2022/01/06 19:59:41;;;;;;;16.35;9.00;;;3.70;99.90;;;;;;5038676;28;20031;-92
2022/01/06 20:02:07;;;;;;;16.85;8.82;;;3.70;99.90;;;;;;5038432;28;20029;-93
2022/01/06 20:04:33;;;;;;;19.60;10.15;;;3.60;99.90;;;;;;5054826;28;20044;-94
2022/01/06 20:06:58;;;;;;;20.33;10.25;;;3.60;99.90;;;;;;5055957;28;20112;-94
2022/01/06 20:09:24;;;;;;;30.67;12.75;;;3.60;99.90;;;;;;5054773;28;20043;-92
2022/01/06 20:11:50;;;;;;;23.55;10.90;;;3.60;99.90;;;;;;5055115;28;20470;-91
2022/01/06 20:14:15;;;;;;;18.08;9.52;;;3.60;99.90;;;;;;5055251;28;20424;-91
2022/01/06 20:16:42;;;;;;;21.23;10.27;;;3.60;99.90;;;;;;5055813;28;20444;-91
2022/01/06 20:19:08;;;;;;;18.10;9.95;;;3.60;99.90;;;;;;5054767;28;20094;-90
2022/01/06 20:21:34;;;;;;;20.58;10.73;;;3.60;99.90;;;;;;5055066;28;20534;-88
2022/01/06 20:23:59;;;;;;;16.85;9.80;;;3.60;99.90;;;;;;5054824;28;20391;-90
2022/01/06 20:26:26;;;;;;;17.80;10.10;;;3.50;99.90;;;;;;5055929;28;20017;-90
2022/01/06 20:28:52;;;;;;;21.55;9.70;;;3.50;99.90;;;;;;5054670;28;20118;-90
2022/01/06 20:31:18;;;;;;;23.83;11.85;;;3.50;99.90;;;;;;5054735;28;20441;-92
2022/01/06 20:33:44;;;;;;;25.40;11.38;;;3.50;99.90;;;;;;5054672;28;20025;-90
2022/01/06 20:36:12;;;;;;;27.10;13.30;;;3.40;99.90;;;;;;5054727;28;20078;-90
2022/01/06 20:38:39;;;;;;;27.02;12.13;;;3.50;99.90;;;;;;5054587;28;20028;-90
2022/01/06 20:41:05;;;;;;;24.48;11.68;;;3.50;99.90;;;;;;5054500;28;20047;-89
2022/01/06 20:43:31;;;;;;;25.35;11.88;;;3.50;99.90;;;;;;5043484;28;20033;-91
2022/01/06 20:45:58;;;;;;;26.48;13.65;;;3.50;99.90;;;;;;5051166;28;20079;-91
2022/01/06 20:51:16;;;;;;;20.17;11.15;;;3.40;99.90;;;;;;5016234;28;20373;-92
2022/01/06 20:53:44;;;;;;;21.48;12.35;;;3.40;99.90;;;;;;5046477;28;20024;-90
2022/01/06 20:56:11;;;;;;;21.35;12.27;;;3.40;99.90;;;;;;5074259;28;20033;-91
2022/01/06 20:58:37;;;;;;;23.52;12.00;;;3.30;99.90;;;;;;5056025;28;20407;-91
2022/01/06 21:01:03;;;;;;;22.70;11.52;;;3.30;99.90;;;;;;5053998;28;20025;-92
2022/01/06 21:03:29;;;;;;;20.52;11.35;;;3.30;99.90;;;;;;5055517;28;20489;-93
2022/01/06 21:05:54;;;;;;;19.70;10.98;;;3.30;99.90;;;;;;5029483;28;20032;-92
2022/01/06 21:08:20;;;;;;;19.83;10.57;;;3.30;99.90;;;;;;5017480;28;20079;-90
2022/01/06 21:10:46;;;;;;;17.17;10.55;;;3.20;99.90;;;;;;5017707;28;20397;-89
2022/01/06 21:13:13;;;;;;;21.02;12.05;;;3.20;99.90;;;;;;5016901;28;20041;-91
2022/01/06 21:15:39;;;;;;;20.90;11.13;;;3.20;99.90;;;;;;5018216;28;20095;-90
2022/01/06 21:18:05;;;;;;;23.63;11.50;;;3.20;99.90;;;;;;5030018;28;20024;-90
2022/01/06 21:20:31;;;;;;;21.35;12.73;;;3.10;99.90;;;;;;5037351;28;20021;-90
2022/01/06 21:22:57;;;;;;;31.75;15.55;;;3.10;99.90;;;;;;5037881;28;20387;-90
2022/01/06 21:25:22;;;;;;;29.77;16.08;;;3.10;99.90;;;;;;5039959;28;20021;-89
2022/01/06 21:27:50;;;;;;;25.17;13.88;;;3.10;99.90;;;;;;5057062;28;20021;-90
2022/01/06 21:30:16;;;;;;;25.58;13.23;;;3.10;99.90;;;;;;5056847;28;20020;-91